Time;durP1;ratioP1;P1;durP2;ratioP2;P2;SDS_P1;SDS_P2;PMS_P1;PMS_P2;Temp;Humidity;BMP_temperature;BMP_pressure;BME280_temperature;BME280_humidity;BME280_pressure;Samples;Min_cycle;Max_cycle;Signal;HPM_P1;HPM_P2
2023/10/18 00:00:04;;;;;;;0.40;0.40;;;9.40;99.90;;;;;;5014607;28;20061;-79
2023/10/18 00:02:34;;;;;;;0.10;0.10;;;9.50;99.90;;;;;;5014488;28;20057;-81
2023/10/18 00:05:00;;;;;;;0.40;0.38;;;9.60;99.90;;;;;;5030131;28;20022;-79
2023/10/18 00:07:27;;;;;;;0.10;0.10;;;9.50;99.90;;;;;;5014758;28;20076;-80
2023/10/18 00:09:55;;;;;;;0.10;0.10;;;9.30;99.90;;;;;;5014580;28;20026;-80
2023/10/18 00:12:21;;;;;;;0.55;0.55;;;9.30;99.90;;;;;;5014449;28;20068;-79
2023/10/18 00:14:51;;;;;;;0.20;0.20;;;9.50;99.90;;;;;;5014545;28;20057;-79
2023/10/18 00:17:17;;;;;;;0.10;0.10;;;9.50;99.90;;;;;;5014085;28;20034;-80
2023/10/18 00:19:43;;;;;;;0.63;0.60;;;9.50;99.90;;;;;;5014532;28;20033;-79
2023/10/18 00:22:09;;;;;;;0.40;0.40;;;9.40;99.90;;;;;;5014225;28;20049;-81
2023/10/18 00:24:39;;;;;;;0.35;0.35;;;9.50;99.90;;;;;;5014559;28;20026;-78
2023/10/18 00:27:06;;;;;;;0.20;0.20;;;9.40;99.90;;;;;;5014203;28;20172;-80
2023/10/18 00:29:33;;;;;;;0.10;0.10;;;9.30;99.90;;;;;;5013170;28;20616;-79
2023/10/18 00:31:59;;;;;;;0.75;0.75;;;9.20;99.90;;;;;;5013867;28;20130;-78
2023/10/18 00:34:27;;;;;;;0.10;0.10;;;9.10;99.90;;;;;;5013161;28;20023;-80
2023/10/18 00:36:54;;;;;;;0.30;0.30;;;9.20;99.90;;;;;;5029737;28;20038;-80
2023/10/18 00:39:32;;;;;;;0.20;0.20;;;9.30;99.90;;;;;;5013699;28;20041;-79
2023/10/18 00:42:23;;;;;;;0.40;0.40;;;9.20;99.90;;;;;;5014216;28;20187;-79
2023/10/18 00:44:50;;;;;;;0.55;0.52;;;9.30;99.90;;;;;;4999508;28;20030;-81
2023/10/18 00:47:16;;;;;;;0.52;0.52;;;9.30;99.90;;;;;;5014004;28;20030;-79
2023/10/18 00:49:43;;;;;;;1.67;0.40;;;9.00;99.90;;;;;;5012649;28;20033;-79
2023/10/18 00:52:10;;;;;;;0.47;0.47;;;9.20;99.90;;;;;;5029424;28;20030;-79
2023/10/18 00:54:38;;;;;;;0.20;0.20;;;9.10;99.90;;;;;;5013793;28;20137;-81
2023/10/18 00:57:06;;;;;;;0.80;0.38;;;9.10;99.90;;;;;;5014017;28;20152;-81
2023/10/18 00:59:32;;;;;;;0.30;0.30;;;9.10;99.90;;;;;;5012182;28;20120;-81
2023/10/18 01:01:59;;;;;;;37.90;2.63;;;9.00;99.90;;;;;;5013697;28;20494;-81
2023/10/18 01:04:28;;;;;;;0.13;0.13;;;9.00;99.90;;;;;;5012979;28;20026;-80
2023/10/18 01:06:57;;;;;;;0.75;0.75;;;9.00;99.90;;;;;;5006403;28;20026;-80
2023/10/18 01:09:24;;;;;;;4.47;0.98;;;9.00;99.90;;;;;;4993053;28;20102;-80
2023/10/18 01:11:52;;;;;;;0.10;0.10;;;9.00;99.90;;;;;;5007412;28;20034;-80
2023/10/18 01:14:18;;;;;;;0.55;0.55;;;9.00;99.90;;;;;;5013176;28;20113;-80
2023/10/18 01:16:45;;;;;;;0.40;0.40;;;8.90;99.90;;;;;;5010845;28;20024;-80
2023/10/18 01:19:14;;;;;;;0.63;0.63;;;9.10;99.90;;;;;;5013232;28;20116;-80
2023/10/18 01:21:45;;;;;;;0.20;0.20;;;8.90;99.90;;;;;;5028274;28;20049;-80
2023/10/18 01:24:15;;;;;;;0.17;0.17;;;8.80;99.90;;;;;;5028408;28;20546;-80
2023/10/18 01:26:41;;;;;;;0.20;0.20;;;8.80;99.90;;;;;;5011994;28;20033;-80
2023/10/18 01:29:10;;;;;;;0.20;0.20;;;8.70;99.90;;;;;;5011824;28;20038;-80
2023/10/18 01:31:37;;;;;;;1.38;1.27;;;8.80;99.90;;;;;;5012852;28;20457;-80
2023/10/18 01:34:06;;;;;;;0.28;0.28;;;8.90;99.90;;;;;;5011900;28;20545;-80
2023/10/18 01:36:32;;;;;;;0.35;0.35;;;8.80;99.90;;;;;;5012932;28;20022;-80
2023/10/18 01:38:58;;;;;;;0.10;0.10;;;8.70;99.90;;;;;;5028294;28;20493;-80
2023/10/18 01:41:25;;;;;;;0.57;0.57;;;8.70;99.90;;;;;;5028201;28;20038;-80
2023/10/18 01:43:52;;;;;;;0.32;0.30;;;8.70;99.90;;;;;;5012561;28;20052;-80
2023/10/18 01:46:19;;;;;;;0.15;0.15;;;8.80;99.90;;;;;;5011689;28;20056;-80
2023/10/18 01:48:51;;;;;;;0.63;0.43;;;8.80;99.90;;;;;;5012936;28;20017;-80
2023/10/18 01:51:17;;;;;;;4.95;2.50;;;8.80;99.90;;;;;;5012873;28;20386;-80
2023/10/18 01:53:43;;;;;;;0.10;0.10;;;8.90;99.90;;;;;;5012924;28;20018;-80
2023/10/18 01:56:10;;;;;;;0.10;0.10;;;8.90;99.90;;;;;;5013016;28;20026;-80
2023/10/18 01:58:36;;;;;;;0.10;0.10;;;8.90;99.90;;;;;;5011404;28;20022;-80
2023/10/18 02:01:08;;;;;;;0.17;0.17;;;8.80;99.90;;;;;;5011578;28;20018;-81
2023/10/18 02:03:36;;;;;;;0.10;0.10;;;8.80;99.90;;;;;;5028147;28;20490;-81
2023/10/18 02:06:06;;;;;;;0.10;0.10;;;8.90;99.90;;;;;;5011431;28;20471;-80
2023/10/18 02:08:34;;;;;;;1.65;1.20;;;9.00;99.90;;;;;;5012942;28;20041;-80
2023/10/18 02:11:05;;;;;;;1.55;0.55;;;8.90;99.90;;;;;;5012787;28;20028;-81
2023/10/18 02:13:31;;;;;;;0.83;0.83;;;8.80;99.90;;;;;;5011342;28;20029;-81
2023/10/18 02:15:57;;;;;;;0.10;0.10;;;8.70;99.90;;;;;;5012619;28;20526;-80
2023/10/18 02:18:24;;;;;;;0.10;0.10;;;8.60;99.90;;;;;;5027862;28;20033;-81
2023/10/18 02:20:52;;;;;;;0.57;0.57;;;8.50;99.90;;;;;;5012782;28;20382;-80
2023/10/18 02:23:21;;;;;;;0.10;0.10;;;8.60;99.90;;;;;;5027817;28;20538;-80
2023/10/18 02:25:48;;;;;;;1.75;1.10;;;8.70;99.90;;;;;;5027954;28;20461;-80
2023/10/18 02:28:25;;;;;;;0.15;0.15;;;9.00;99.90;;;;;;5010905;28;20026;-80
2023/10/18 02:31:13;;;;;;;0.10;0.10;;;8.90;99.90;;;;;;5012387;28;20049;-80
2023/10/18 02:33:42;;;;;;;1.25;0.45;;;8.90;99.90;;;;;;4999516;28;20491;-80
2023/10/18 02:36:12;;;;;;;3.85;1.38;;;8.90;99.90;;;;;;5011307;28;20022;-80
2023/10/18 02:38:41;;;;;;;0.20;0.20;;;8.90;99.90;;;;;;5012273;28;20041;-81
2023/10/18 02:41:19;;;;;;;0.10;0.10;;;8.90;99.90;;;;;;5027441;28;20041;-80
2023/10/18 02:43:52;;;;;;;0.95;0.95;;;8.90;99.90;;;;;;5012535;28;20053;-80
2023/10/18 02:46:25;;;;;;;0.10;0.10;;;9.00;99.90;;;;;;5011416;28;20113;-80
2023/10/18 02:48:56;;;;;;;1.15;1.05;;;9.00;99.90;;;;;;4978819;28;20030;-80
2023/10/18 02:51:24;;;;;;;0.68;0.68;;;8.90;99.90;;;;;;4985382;28;20058;-80
2023/10/18 02:53:54;;;;;;;0.10;0.10;;;8.80;99.90;;;;;;5012308;28;20101;-80
2023/10/18 02:56:20;;;;;;;0.45;0.45;;;9.00;99.90;;;;;;5012416;28;20045;-80
2023/10/18 02:58:47;;;;;;;0.75;0.75;;;9.10;99.90;;;;;;5014858;28;20017;-80
2023/10/18 03:01:18;;;;;;;0.98;0.82;;;8.80;99.90;;;;;;5015914;28;20497;-80
2023/10/18 03:03:54;;;;;;;0.22;0.22;;;8.70;99.90;;;;;;5014632;28;20025;-81
2023/10/18 03:06:24;;;;;;;0.30;0.30;;;8.80;99.90;;;;;;5014552;28;20022;-80
2023/10/18 03:08:50;;;;;;;0.10;0.10;;;8.60;99.90;;;;;;5015682;28;20528;-80
2023/10/18 03:11:20;;;;;;;0.85;0.75;;;8.70;99.90;;;;;;5015608;28;20552;-80
2023/10/18 03:13:48;;;;;;;0.20;0.20;;;8.80;99.90;;;;;;5015669;28;20072;-80
2023/10/18 03:18:46;;;;;;;0.28;0.28;;;8.90;99.90;;;;;;5015400;28;20057;-80
2023/10/18 03:21:20;;;;;;;0.38;0.38;;;8.90;99.90;;;;;;5015698;28;20047;-80
2023/10/18 03:23:51;;;;;;;0.73;0.73;;;8.80;99.90;;;;;;5015384;28;20046;-81
2023/10/18 03:26:23;;;;;;;0.20;0.20;;;8.90;99.90;;;;;;5015329;28;20025;-81
2023/10/18 03:28:52;;;;;;;0.75;0.75;;;8.80;99.90;;;;;;5014155;28;20479;-80
2023/10/18 03:33:59;;;;;;;0.73;0.73;;;8.70;99.90;;;;;;5030709;28;20026;-80
2023/10/18 03:36:26;;;;;;;0.22;0.22;;;8.70;99.90;;;;;;5015394;28;20025;-80
2023/10/18 03:39:10;;;;;;;0.50;0.50;;;8.80;99.90;;;;;;5013495;28;20065;-80
2023/10/18 03:41:40;;;;;;;1.13;1.05;;;8.80;99.90;;;;;;5013681;28;20572;-80
2023/10/18 03:44:07;;;;;;;0.63;0.47;;;8.60;99.90;;;;;;5015123;28;20022;-80
2023/10/18 03:46:49;;;;;;;0.20;0.20;;;8.60;99.90;;;;;;5015059;28;20018;-80
2023/10/18 03:49:31;;;;;;;0.10;0.10;;;8.70;99.90;;;;;;5014087;28;20018;-80
2023/10/18 03:52:02;;;;;;;1.08;0.98;;;8.70;99.90;;;;;;5014955;28;20430;-80
2023/10/18 03:54:43;;;;;;;0.20;0.20;;;8.70;99.90;;;;;;5013201;28;20033;-80
2023/10/18 03:57:14;;;;;;;0.10;0.10;;;8.60;99.90;;;;;;5014821;28;20467;-80
2023/10/18 03:59:41;;;;;;;0.10;0.10;;;8.60;99.90;;;;;;4998055;28;20061;-80
2023/10/18 04:02:17;;;;;;;2.80;1.23;;;8.50;99.90;;;;;;5014562;28;20117;-79
2023/10/18 04:04:48;;;;;;;0.20;0.20;;;8.40;99.90;;;;;;5014769;28;20529;-81
2023/10/18 04:07:17;;;;;;;0.52;0.52;;;8.60;99.90;;;;;;5013054;28;20393;-80
2023/10/18 04:09:53;;;;;;;0.35;0.35;;;8.60;99.90;;;;;;5012053;28;20022;-81
2023/10/18 04:12:22;;;;;;;1.10;0.80;;;8.70;99.90;;;;;;5014481;28;20386;-80
2023/10/18 04:14:58;;;;;;;0.90;0.55;;;8.70;99.90;;;;;;5014380;28;20036;-80
2023/10/18 04:17:36;;;;;;;0.68;0.68;;;8.70;99.90;;;;;;5014380;28;20034;-80
2023/10/18 04:20:31;;;;;;;0.85;0.85;;;8.90;99.90;;;;;;5012990;28;20375;-80
2023/10/18 04:22:55;;;;;;;0.10;0.10;;;8.70;99.90;;;;;;5012759;28;20133;-80
2023/10/18 04:25:27;;;;;;;0.45;0.45;;;8.70;99.90;;;;;;5014196;28;20010;-80
2023/10/18 04:28:00;;;;;;;0.35;0.35;;;8.80;99.90;;;;;;5014056;28;20116;-80
2023/10/18 04:30:30;;;;;;;0.63;0.63;;;8.70;99.90;;;;;;5014285;28;20038;-79
2023/10/18 04:33:00;;;;;;;0.85;0.85;;;8.70;99.90;;;;;;5012833;28;20157;-78
2023/10/18 04:35:32;;;;;;;0.30;0.30;;;8.50;99.90;;;;;;5014095;28;20072;-78
2023/10/18 04:37:59;;;;;;;0.20;0.20;;;8.50;99.90;;;;;;5012775;28;20363;-78
2023/10/18 04:40:28;;;;;;;0.88;0.88;;;8.60;99.90;;;;;;5014524;28;20025;-80
2023/10/18 04:42:55;;;;;;;0.10;0.10;;;8.60;99.90;;;;;;5029375;28;20120;-80
2023/10/18 04:45:23;;;;;;;0.70;0.70;;;8.50;99.90;;;;;;5012631;28;20018;-78
2023/10/18 04:48:06;;;;;;;0.10;0.10;;;8.40;99.90;;;;;;4996489;28;20037;-78
2023/10/18 04:50:38;;;;;;;0.45;0.45;;;8.40;99.90;;;;;;5013812;28;20033;-79
2023/10/18 04:53:12;;;;;;;;;;;8.40;99.90;;;;;;5014049;28;20471;-78
2023/10/18 04:55:46;;;;;;;0.10;0.10;;;8.40;99.90;;;;;;5013410;28;19924;-78
2023/10/18 04:58:15;;;;;;;0.10;0.10;;;8.40;99.90;;;;;;5013976;28;20036;-78
2023/10/18 05:03:44;;;;;;;1.40;0.47;;;8.30;99.90;;;;;;4980149;28;20407;-79
2023/10/18 05:06:11;;;;;;;0.22;0.22;;;8.30;99.90;;;;;;5013418;28;20474;-78
2023/10/18 05:08:37;;;;;;;0.47;0.47;;;8.40;99.90;;;;;;5013385;28;20037;-78
2023/10/18 05:11:47;;;;;;;0.10;0.10;;;8.30;99.90;;;;;;5013580;28;20076;-78
2023/10/18 05:13:56;;;;;;;0.65;0.65;;;8.50;99.90;;;;;;5008029;28;20046;-78
2023/10/18 05:16:26;;;;;;;0.63;0.63;;;8.40;99.90;;;;;;5013438;28;20073;-79
2023/10/18 05:18:52;;;;;;;0.35;0.35;;;8.40;99.90;;;;;;5028560;28;20037;-78
2023/10/18 05:21:20;;;;;;;2.13;0.90;;;8.30;99.90;;;;;;5012551;28;20041;-79
2023/10/18 05:23:46;;;;;;;0.10;0.10;;;8.30;99.90;;;;;;5013349;28;20022;-78
2023/10/18 05:26:18;;;;;;;1.77;0.45;;;8.50;99.90;;;;;;5012101;28;20044;-78
2023/10/18 05:28:47;;;;;;;0.35;0.35;;;8.30;99.90;;;;;;5013204;28;20038;-79
2023/10/18 05:36:35;;;;;;;2.17;1.08;;;8.20;99.90;;;;;;5012782;28;20037;-80
2023/10/18 05:39:27;;;;;;;0.50;0.50;;;8.20;99.90;;;;;;5008179;28;20045;-79
2023/10/18 05:42:03;;;;;;;0.93;0.85;;;8.20;99.90;;;;;;5012167;28;20045;-80
2023/10/18 05:44:29;;;;;;;0.08;0.08;;;8.30;99.90;;;;;;5008434;28;20061;-80
2023/10/18 05:46:56;;;;;;;0.20;0.20;;;8.40;99.90;;;;;;5012237;28;20034;-80
2023/10/18 05:49:25;;;;;;;0.40;0.40;;;8.40;99.90;;;;;;5012058;28;20037;-78
2023/10/18 05:51:51;;;;;;;0.20;0.20;;;8.40;99.90;;;;;;5011861;28;20022;-78
2023/10/18 05:54:24;;;;;;;0.40;0.40;;;8.30;99.90;;;;;;5012121;28;20014;-78
2023/10/18 05:56:51;;;;;;;0.10;0.10;;;8.10;99.90;;;;;;5011943;28;20482;-80
2023/10/18 06:01:51;;;;;;;0.80;0.80;;;8.20;99.90;;;;;;5011787;28;20471;-80
2023/10/18 06:04:26;;;;;;;0.43;0.43;;;8.20;99.90;;;;;;5011666;28;20216;-80
2023/10/18 06:07:04;;;;;;;0.25;0.17;;;8.30;99.90;;;;;;5011934;28;20042;-78
2023/10/18 06:09:33;;;;;;;3.30;1.15;;;8.30;99.90;;;;;;5011471;28;20030;-79
2023/10/18 06:12:03;;;;;;;0.55;0.40;;;8.40;99.90;;;;;;5011867;28;20040;-79
2023/10/18 06:14:39;;;;;;;0.20;0.20;;;8.50;99.90;;;;;;5012012;28;20092;-79
2023/10/18 06:17:26;;;;;;;0.85;0.85;;;8.60;99.90;;;;;;5007049;28;20034;-78
2023/10/18 06:19:52;;;;;;;0.10;0.10;;;8.40;99.90;;;;;;5010916;28;20072;-78
2023/10/18 06:25:03;;;;;;;0.55;0.47;;;8.50;99.90;;;;;;5021908;28;20386;-79
2023/10/18 06:27:38;;;;;;;0.82;0.82;;;8.60;99.90;;;;;;5011931;28;20065;-78
2023/10/18 06:30:14;;;;;;;1.17;0.47;;;8.60;99.90;;;;;;5011129;28;20022;-79
2023/10/18 06:32:41;;;;;;;1.80;0.47;;;8.70;99.90;;;;;;5011584;28;20077;-80
2023/10/18 06:35:16;;;;;;;1.85;1.38;;;8.70;99.90;;;;;;5015736;28;20033;-79
2023/10/18 06:37:42;;;;;;;1.08;1.08;;;8.70;99.90;;;;;;5015106;28;20033;-80
2023/10/18 06:43:03;;;;;;;0.55;0.55;;;8.60;99.90;;;;;;5014592;28;20518;-80
2023/10/18 06:45:33;;;;;;;0.10;0.10;;;8.70;99.90;;;;;;5014782;28;20037;-80
2023/10/18 06:48:02;;;;;;;0.20;0.20;;;8.80;99.90;;;;;;5014673;28;20030;-80
2023/10/18 06:50:28;;;;;;;0.10;0.10;;;8.80;99.90;;;;;;5015516;28;20030;-80
2023/10/18 06:52:55;;;;;;;0.80;0.80;;;8.80;99.90;;;;;;5013816;28;20080;-80
2023/10/18 06:58:22;;;;;;;1.17;1.08;;;8.80;99.90;;;;;;5000564;28;20057;-80
2023/10/18 07:01:00;;;;;;;0.10;0.10;;;8.70;99.90;;;;;;5014099;28;21524;-79
2023/10/18 07:03:33;;;;;;;0.85;0.85;;;8.90;99.90;;;;;;5014135;28;20125;-79
2023/10/18 07:08:49;;;;;;;0.13;0.13;;;9.20;99.90;;;;;;5015116;28;20479;-77
2023/10/18 07:11:18;;;;;;;0.22;0.22;;;9.00;99.90;;;;;;5015623;28;20486;-77
2023/10/18 07:13:46;;;;;;;0.65;0.63;;;9.00;99.90;;;;;;5013998;28;20100;-77
2023/10/18 07:16:15;;;;;;;0.43;0.43;;;9.10;99.90;;;;;;5015806;28;20453;-77
2023/10/18 07:18:45;;;;;;;0.20;0.20;;;9.10;99.90;;;;;;5014835;28;20033;-77
2023/10/18 07:21:18;;;;;;;1.23;0.57;;;9.20;99.90;;;;;;5015674;28;20064;-77
2023/10/18 07:23:53;;;;;;;0.10;0.10;;;9.20;99.90;;;;;;5015128;28;20037;-77
2023/10/18 07:26:21;;;;;;;0.45;0.22;;;9.50;99.90;;;;;;5015507;28;20483;-78
2023/10/18 07:28:49;;;;;;;0.10;0.10;;;9.40;99.90;;;;;;5015267;28;20030;-78
2023/10/18 07:31:17;;;;;;;0.95;0.70;;;9.60;99.90;;;;;;5011557;28;20492;-77
2023/10/18 07:33:43;;;;;;;2.90;1.38;;;9.50;99.90;;;;;;5018908;28;20481;-77
2023/10/18 07:36:11;;;;;;;0.40;0.40;;;9.70;99.90;;;;;;5013708;28;20029;-77
2023/10/18 07:38:55;;;;;;;0.10;0.10;;;9.60;99.90;;;;;;5014832;28;20040;-77
2023/10/18 07:41:26;;;;;;;0.20;0.20;;;9.80;99.90;;;;;;5015193;28;20049;-77
2023/10/18 07:43:57;;;;;;;0.03;0.03;;;9.90;99.90;;;;;;5002738;28;20061;-77
2023/10/18 07:46:25;;;;;;;0.43;0.43;;;10.00;99.90;;;;;;5014946;28;20037;-77
2023/10/18 07:49:03;;;;;;;0.25;0.15;;;9.90;99.90;;;;;;5014536;28;20331;-77
2023/10/18 07:51:32;;;;;;;0.55;0.40;;;10.10;99.90;;;;;;5014976;28;20479;-77
2023/10/18 07:53:59;;;;;;;5.75;0.43;;;10.10;99.90;;;;;;5014751;28;20417;-77
2023/10/18 07:56:29;;;;;;;0.10;0.10;;;10.10;99.90;;;;;;5015213;28;20487;-77
2023/10/18 07:59:27;;;;;;;0.10;0.10;;;10.20;99.90;;;;;;5013233;28;20113;-77
2023/10/18 08:01:51;;;;;;;1.70;1.58;;;10.10;99.90;;;;;;5013922;28;20147;-79
2023/10/18 08:04:20;;;;;;;0.10;0.10;;;10.30;99.90;;;;;;5012131;28;20026;-77
2023/10/18 08:06:48;;;;;;;1.15;0.68;;;10.30;99.90;;;;;;5014570;28;20030;-78
2023/10/18 08:09:17;;;;;;;0.77;0.77;;;10.50;99.90;;;;;;5014397;28;20033;-77
2023/10/18 08:11:50;;;;;;;4.47;1.55;;;10.50;99.90;;;;;;5014632;28;20124;-77
2023/10/18 08:14:16;;;;;;;0.50;0.50;;;10.50;99.90;;;;;;5013330;28;20104;-79
2023/10/18 08:16:43;;;;;;;0.15;0.15;;;10.50;99.90;;;;;;5014439;28;20045;-77
2023/10/18 08:19:11;;;;;;;0.13;0.13;;;10.60;99.90;;;;;;5014296;28;20017;-79
2023/10/18 08:21:38;;;;;;;0.20;0.20;;;10.80;99.90;;;;;;5014607;28;20076;-78
2023/10/18 08:24:08;;;;;;;0.40;0.40;;;10.80;99.90;;;;;;5014012;28;20377;-77
2023/10/18 08:26:46;;;;;;;0.57;0.57;;;10.80;99.90;;;;;;5013673;28;20545;-77
2023/10/18 08:29:16;;;;;;;0.50;0.40;;;10.90;99.90;;;;;;5011653;28;20038;-77
2023/10/18 08:31:48;;;;;;;0.75;0.75;;;10.90;99.90;;;;;;5025823;28;20372;-77
2023/10/18 08:34:23;;;;;;;0.75;0.70;;;11.00;99.90;;;;;;5007104;28;20084;-77
2023/10/18 08:37:01;;;;;;;0.10;0.10;;;11.30;99.90;;;;;;5012858;28;20022;-78
2023/10/18 08:39:28;;;;;;;0.85;0.85;;;11.30;99.90;;;;;;5014020;28;20030;-81
2023/10/18 08:42:05;;;;;;;0.63;0.63;;;11.40;99.90;;;;;;5013999;28;20069;-80
2023/10/18 08:44:35;;;;;;;0.20;0.20;;;11.50;99.90;;;;;;5013634;28;20478;-80
2023/10/18 08:49:45;;;;;;;0.38;0.38;;;11.60;99.90;;;;;;5014115;28;20421;-80
2023/10/18 08:52:11;;;;;;;0.10;0.10;;;11.60;99.90;;;;;;5013987;28;20034;-78
2023/10/18 08:54:41;;;;;;;1.60;0.77;;;11.80;99.90;;;;;;5013768;28;20086;-80
2023/10/18 08:57:09;;;;;;;0.10;0.10;;;11.90;99.90;;;;;;5013379;28;20052;-78
2023/10/18 08:59:50;;;;;;;0.82;0.82;;;12.10;99.90;;;;;;5013608;28;20018;-78
2023/10/18 09:02:18;;;;;;;1.23;0.55;;;12.00;99.90;;;;;;5013556;28;20422;-77
2023/10/18 09:04:48;;;;;;;0.50;0.20;;;12.10;99.90;;;;;;5013826;28;20374;-78
2023/10/18 09:07:23;;;;;;;1.17;1.08;;;12.20;99.90;;;;;;5013455;28;20055;-77
2023/10/18 09:09:57;;;;;;;0.25;0.25;;;12.20;99.90;;;;;;5014119;28;20458;-77
2023/10/18 09:13:29;;;;;;;0.10;0.10;;;12.30;99.90;;;;;;5013404;28;20482;-77
2023/10/18 09:15:29;;;;;;;1.45;0.90;;;12.30;99.90;;;;;;5011998;28;20045;-76
2023/10/18 09:17:59;;;;;;;0.10;0.10;;;12.50;99.90;;;;;;5013379;28;20038;-78
2023/10/18 09:20:26;;;;;;;0.17;0.17;;;13.00;99.90;;;;;;5013387;28;20029;-75
2023/10/18 09:22:53;;;;;;;2.75;0.47;;;13.00;99.90;;;;;;5013403;28;20120;-77
2023/10/18 09:25:24;;;;;;;0.10;0.10;;;12.90;99.90;;;;;;5012355;28;20459;-79
2023/10/18 09:27:52;;;;;;;0.10;0.10;;;13.30;99.90;;;;;;5013038;28;20096;-78
2023/10/18 09:30:20;;;;;;;0.10;0.10;;;13.60;99.90;;;;;;5013497;28;20463;-79
2023/10/18 09:32:47;;;;;;;0.20;0.20;;;13.70;99.90;;;;;;5013066;28;20065;-79
2023/10/18 09:35:15;;;;;;;0.30;0.30;;;13.80;99.90;;;;;;5012108;28;20021;-80
2023/10/18 09:37:41;;;;;;;1.30;0.43;;;13.80;99.90;;;;;;5011820;28;20038;-79
2023/10/18 09:40:11;;;;;;;0.30;0.30;;;13.70;99.90;;;;;;5013408;28;20050;-79
2023/10/18 09:42:37;;;;;;;0.70;0.55;;;13.90;99.90;;;;;;5027993;28;20261;-78
2023/10/18 09:45:03;;;;;;;0.10;0.10;;;14.30;99.90;;;;;;5013032;28;20097;-79
2023/10/18 09:47:29;;;;;;;0.00;0.00;;;14.40;99.90;;;;;;5028271;28;20026;-79
2023/10/18 09:49:56;;;;;;;0.10;0.10;;;14.20;99.90;;;;;;5013139;28;20360;-78
2023/10/18 09:52:24;;;;;;;0.10;0.10;;;14.30;99.90;;;;;;4995337;28;20029;-79
2023/10/18 09:54:51;;;;;;;0.38;0.38;;;14.80;99.90;;;;;;5010778;28;20022;-76
2023/10/18 09:57:24;;;;;;;0.08;0.08;;;14.90;99.90;;;;;;5009780;28;20395;-77
2023/10/18 09:59:54;;;;;;;0.05;0.05;;;15.30;99.90;;;;;;5012302;28;20036;-75
2023/10/18 10:02:21;;;;;;;0.30;0.30;;;15.10;99.90;;;;;;5012100;28;20045;-77
2023/10/18 10:04:54;;;;;;;0.13;0.13;;;15.10;99.90;;;;;;5012207;28;20029;-76
2023/10/18 10:07:37;;;;;;;6.50;0.50;;;15.10;99.90;;;;;;5014184;28;20390;-75
2023/10/18 10:10:17;;;;;;;0.30;0.17;;;15.10;99.90;;;;;;5015830;28;20037;-77
2023/10/18 10:12:45;;;;;;;0.47;0.47;;;15.30;99.90;;;;;;5004350;28;20034;-75
2023/10/18 10:15:13;;;;;;;0.30;0.30;;;15.30;99.90;;;;;;5016021;28;20030;-78
2023/10/18 10:17:42;;;;;;;0.08;0.08;;;15.80;99.90;;;;;;5011667;28;20029;-77
2023/10/18 10:20:15;;;;;;;0.57;0.45;;;16.10;99.90;;;;;;5014692;28;20026;-77
2023/10/18 10:22:45;;;;;;;0.75;0.47;;;16.40;99.90;;;;;;5015351;28;20042;-75
2023/10/18 10:25:30;;;;;;;0.20;0.20;;;16.30;99.90;;;;;;5015321;28;20058;-77
2023/10/18 10:28:13;;;;;;;0.52;0.47;;;16.40;99.90;;;;;;5015624;28;20052;-77
2023/10/18 10:30:43;;;;;;;0.60;0.60;;;16.50;99.90;;;;;;5016016;28;20030;-78
2023/10/18 10:33:12;;;;;;;0.32;0.20;;;16.40;99.90;;;;;;5015493;28;20115;-77
2023/10/18 10:35:44;;;;;;;2.65;0.90;;;16.30;99.90;;;;;;5015951;28;20025;-77
2023/10/18 10:38:28;;;;;;;0.10;0.10;;;16.30;99.90;;;;;;5013699;28;20036;-76
2023/10/18 10:41:19;;;;;;;0.00;0.00;;;16.70;99.90;;;;;;5014915;28;20088;-77
2023/10/18 10:44:08;;;;;;;1.17;0.60;;;16.70;99.90;;;;;;5011819;28;20066;-76
2023/10/18 10:46:39;;;;;;;0.15;0.15;;;16.90;99.90;;;;;;5012564;28;20053;-75
2023/10/18 10:49:42;;;;;;;0.35;0.35;;;17.00;99.90;;;;;;5015361;28;20061;-77
2023/10/18 10:52:09;;;;;;;0.00;0.00;;;16.90;99.90;;;;;;5014904;28;20028;-76
2023/10/18 10:54:37;;;;;;;0.10;0.10;;;17.50;99.90;;;;;;5030056;28;20116;-76
2023/10/18 10:57:08;;;;;;;0.52;0.52;;;17.60;99.90;;;;;;5014822;28;20026;-74
2023/10/18 10:59:41;;;;;;;0.98;0.75;;;17.10;99.90;;;;;;5015422;28;20033;-77
2023/10/18 11:02:07;;;;;;;1.25;0.55;;;17.10;99.90;;;;;;5014534;28;20402;-77
2023/10/18 11:04:46;;;;;;;0.00;0.00;;;16.70;99.90;;;;;;5015342;28;20026;-77
2023/10/18 11:07:13;;;;;;;0.17;0.17;;;16.60;99.90;;;;;;5012884;28;20053;-78
2023/10/18 11:09:43;;;;;;;0.47;0.47;;;16.60;99.90;;;;;;5014793;28;20026;-77
2023/10/18 11:12:11;;;;;;;0.80;0.80;;;16.60;99.90;;;;;;5014957;28;20466;-75
2023/10/18 11:14:37;;;;;;;0.03;0.03;;;16.80;99.90;;;;;;5014600;28;20097;-78
2023/10/18 11:19:58;;;;;;;0.38;0.38;;;16.70;99.90;;;;;;5013992;28;20040;-78
2023/10/18 11:22:29;;;;;;;13.35;1.65;;;16.70;99.90;;;;;;5010615;28;20380;-77
2023/10/18 11:24:56;;;;;;;1.45;0.32;;;16.80;99.90;;;;;;5014261;28;20502;-77
2023/10/18 11:27:33;;;;;;;0.30;0.30;;;16.90;99.90;;;;;;5014985;28;20021;-78
2023/10/18 11:30:22;;;;;;;0.40;0.40;;;16.90;99.90;;;;;;5014698;28;20076;-77
2023/10/18 11:32:50;;;;;;;0.25;0.25;;;17.20;99.90;;;;;;5014208;28;20034;-78
2023/10/18 11:38:10;;;;;;;0.10;0.10;;;17.40;99.90;;;;;;5013840;28;20360;-76
2023/10/18 11:40:40;;;;;;;0.85;0.63;;;17.30;99.90;;;;;;5014883;28;20502;-77
2023/10/18 11:43:09;;;;;;;0.10;0.10;;;18.00;99.90;;;;;;5013049;28;20040;-77
2023/10/18 11:45:37;;;;;;;1.98;0.82;;;18.60;99.90;;;;;;5014329;28;20108;-77
2023/10/18 11:48:09;;;;;;;0.00;0.00;;;18.50;99.90;;;;;;5013599;28;20037;-77
2023/10/18 11:50:42;;;;;;;0.45;0.43;;;18.80;99.90;;;;;;5012994;28;20021;-76
2023/10/18 11:53:13;;;;;;;0.70;0.70;;;18.70;99.80;;;;;;5008003;28;20053;-74
2023/10/18 11:55:58;;;;;;;1.95;0.22;;;18.40;99.90;;;;;;5013768;28;20034;-78
2023/10/18 11:58:28;;;;;;;2.45;0.95;;;19.10;99.80;;;;;;5009861;28;20483;-75
2023/10/18 12:00:58;;;;;;;0.35;0.35;;;19.10;98.80;;;;;;5013766;28;20152;-73
2023/10/18 12:03:27;;;;;;;0.40;0.32;;;19.20;98.10;;;;;;5013903;28;20042;-74
2023/10/18 12:06:00;;;;;;;1.38;0.73;;;18.80;99.10;;;;;;5011375;28;20022;-76
2023/10/18 12:08:33;;;;;;;0.77;0.63;;;18.40;98.90;;;;;;5013782;28;20705;-77
2023/10/18 12:11:04;;;;;;;0.40;0.40;;;18.10;99.90;;;;;;5004092;28;20108;-75
2023/10/18 12:13:30;;;;;;;0.32;0.20;;;18.40;99.90;;;;;;5012807;28;20077;-76
2023/10/18 12:16:00;;;;;;;0.85;0.85;;;19.20;99.90;;;;;;5012186;28;20022;-75
2023/10/18 12:18:29;;;;;;;0.40;0.40;;;19.30;99.20;;;;;;5014069;28;20057;-75
2023/10/18 12:20:55;;;;;;;0.57;0.25;;;19.50;98.80;;;;;;5013230;28;20030;-75
2023/10/18 12:23:22;;;;;;;2.85;0.90;;;19.40;98.60;;;;;;5013484;28;20463;-75
2023/10/18 12:25:48;;;;;;;0.00;0.00;;;19.10;98.20;;;;;;5012518;28;20065;-75
2023/10/18 12:28:19;;;;;;;0.20;0.20;;;19.20;99.10;;;;;;5028984;28;20112;-75
2023/10/18 12:30:52;;;;;;;1.30;0.70;;;18.80;99.80;;;;;;5012359;28;20153;-75
2023/10/18 12:33:23;;;;;;;0.30;0.13;;;18.50;99.90;;;;;;5013343;28;20109;-76
2023/10/18 12:35:51;;;;;;;0.20;0.20;;;18.50;99.90;;;;;;5012182;28;20482;-75
2023/10/18 12:38:21;;;;;;;0.70;0.40;;;18.40;99.90;;;;;;5013297;28;20105;-74
2023/10/18 12:40:54;;;;;;;0.05;0.05;;;18.60;99.90;;;;;;5013377;28;20084;-76
2023/10/18 12:43:21;;;;;;;0.75;0.73;;;18.70;99.90;;;;;;5028544;28;20060;-77
2023/10/18 12:45:50;;;;;;;1.95;0.63;;;18.90;99.90;;;;;;5013322;28;20018;-75
2023/10/18 12:48:22;;;;;;;0.00;0.00;;;19.00;99.90;;;;;;5013655;28;20026;-77
2023/10/18 12:50:56;;;;;;;1.60;0.82;;;19.10;99.90;;;;;;5012950;28;20037;-77
2023/10/18 12:55:59;;;;;;;1.10;1.02;;;18.60;99.90;;;;;;5012625;28;20060;-77
2023/10/18 12:58:29;;;;;;;0.00;0.00;;;18.50;99.90;;;;;;5012929;28;20029;-77
2023/10/18 13:01:05;;;;;;;0.90;0.52;;;18.50;99.90;;;;;;5012963;28;20025;-77
2023/10/18 13:03:34;;;;;;;0.80;0.75;;;18.50;99.90;;;;;;5012749;28;20042;-78
2023/10/18 13:06:00;;;;;;;0.22;0.22;;;18.30;99.90;;;;;;5012413;28;20022;-78
2023/10/18 13:08:26;;;;;;;4.55;0.80;;;18.30;99.90;;;;;;5012561;28;20122;-77
2023/10/18 13:13:35;;;;;;;1.55;1.00;;;18.20;99.90;;;;;;5011343;28;20026;-78
2023/10/18 13:16:01;;;;;;;0.57;0.40;;;18.40;99.90;;;;;;5002808;28;20500;-78
2023/10/18 13:18:27;;;;;;;3.20;0.25;;;18.30;99.90;;;;;;5012453;28;20152;-78
2023/10/18 13:20:58;;;;;;;0.25;0.25;;;18.30;99.90;;;;;;5012229;28;20406;-77
2023/10/18 13:23:27;;;;;;;0.22;0.22;;;18.30;99.90;;;;;;5012443;28;20425;-78
2023/10/18 13:25:54;;;;;;;0.55;0.55;;;18.20;99.90;;;;;;5012461;28;20026;-77
2023/10/18 13:28:33;;;;;;;0.00;0.00;;;18.20;99.90;;;;;;4998736;28;20025;-75
2023/10/18 13:31:04;;;;;;;0.00;0.00;;;18.10;99.90;;;;;;5006214;28;20053;-78
2023/10/18 13:33:33;;;;;;;0.45;0.45;;;18.50;99.90;;;;;;5012165;28;20026;-76
2023/10/18 13:36:01;;;;;;;1.08;1.08;;;18.80;99.90;;;;;;4998287;28;20097;-76
2023/10/18 13:38:28;;;;;;;0.45;0.45;;;18.70;99.90;;;;;;5011878;28;20034;-77
2023/10/18 13:40:54;;;;;;;0.30;0.13;;;18.70;99.90;;;;;;5010230;28;20036;-77
2023/10/18 13:43:24;;;;;;;0.73;0.55;;;18.60;99.90;;;;;;5011671;28;20053;-77
2023/10/18 13:45:59;;;;;;;0.20;0.20;;;18.40;99.90;;;;;;5012686;28;20470;-77
2023/10/18 13:48:26;;;;;;;0.00;0.00;;;18.30;99.90;;;;;;5011947;28;20474;-76
2023/10/18 13:50:53;;;;;;;0.30;0.30;;;18.10;99.90;;;;;;5012482;28;20467;-77